Lyon/Saint-Exupery

Airport
ICAO code: 
LFLL
IATA Code: 
LYS
Summary
ICAO Region: 
EUR
Territory: 
Location: 
Colombier-Saugnieu, Rhone-Alpes
Serving: 
Lyon
Elevation: 
821 ft
Coordinates: 
Aerial View: 
45° 43' 32.002" N, 5° 4' 52" E
Metar
Observation
LFLL 290600Z 33012KT 9999 BKN015 01/00 Q1007 TEMPO -RASN
Station
Lyon / Satolas
Date/Time
2021-11-29 06:00:00
Wind direction
330°
Wind speed
12 kts
Lowest cloud amount
broken clouds
Temperature
1°C
Dew point
0°C
Humidity
93%
QNH
1007 hPa
Weather condition
n/a

Description

International airport serving city of Lyon in France; formerly known as Lyon Satolas.

Climatology

Humid Subtropical (Köppen climate classification Cfa).

Runways

Designator Length Width Surface Rops
18L/36R 2670 45 ASP Yes/Yes
18R/36L 4000 45 ASP Yes/Yes

SKYbrary Partners:

Safety knowledge contributed by: